| time (UTC) | temp F | wind direction | speed knots | gust knots | rain 1hr in | rain 24hr in | rain mn in | humidity % | barometer mb |
| 20260503200308 | 59 | 250 | 3.5 | 10.4 | 0.00 | 0.00 | 0.00 | 39 | 1010.5 |
| 20260503195538 | 59 | 250 | 4.3 | 11.3 | 0.00 | 0.00 | 0.00 | 39 | 1010.5 |
| 20260503195036 | 59 | 246 | 3.5 | 11.3 | 0.00 | 0.00 | 0.00 | 38 | 1010.8 |
| 20260503194538 | 58 | 252 | 3.5 | 11.3 | 0.00 | 0.00 | 0.00 | 40 | 1010.6 |
| 20260503194037 | 59 | 255 | 2.6 | 10.4 | 0.00 | 0.00 | 0.00 | 40 | 1010.9 |
| 20260503193538 | 59 | 259 | 2.6 | 15.6 | 0.00 | 0.00 | 0.00 | 40 | 1010.9 |
| 20260503193307 | 59 | 259 | 3.5 | 15.6 | 0.00 | 0.00 | 0.00 | 40 | 1011.0 |
| 20260503192535 | 58 | 240 | 2.6 | 10.4 | 0.00 | 0.00 | 0.00 | 41 | 1011.0 |
| 20260503192034 | 57 | 238 | 2.6 | 7.0 | 0.00 | 0.00 | 0.00 | 41 | 1011.3 |
| 20260503191533 | 57 | 238 | 2.6 | 11.3 | 0.00 | 0.00 | 0.00 | 41 | 1011.5 |
| 20260503191036 | 57 | 238 | 3.5 | 11.3 | 0.00 | 0.00 | 0.00 | 41 | 1011.3 |
| 20260503190807 | 57 | 234 | 3.5 | 8.7 | 0.00 | 0.00 | 0.00 | 40 | 1011.3 |
| 20260503190308 | 57 | 231 | 2.6 | 9.6 | 0.00 | 0.00 | 0.00 | 42 | 1011.5 |
| 20260503185531 | 57 | 231 | 3.5 | 11.3 | 0.00 | 0.00 | 0.00 | 40 | 1011.6 |
| 20260503185029 | 57 | 229 | 3.5 | 12.2 | 0.00 | 0.00 | 0.00 | 41 | 1011.6 |
| 20260503184531 | 58 | 223 | 3.5 | 12.2 | 0.00 | 0.00 | 0.00 | 41 | 1011.5 |
| 20260503184032 | 57 | 298 | 3.5 | 11.3 | 0.00 | 0.00 | 0.00 | 41 | 1011.5 |
| 20260503183530 | 57 | 296 | 3.5 | 11.3 | 0.00 | 0.00 | 0.00 | 40 | 1011.8 |
| 20260503183302 | 57 | 305 | 3.5 | 11.3 | 0.00 | 0.00 | 0.00 | 41 | 1011.7 |
| 20260503182527 | 57 | 325 | 2.6 | 9.6 | 0.00 | 0.00 | 0.00 | 42 | 1011.7 |
| 20260503182027 | 56 | 325 | 2.6 | 11.3 | 0.00 | 0.00 | 0.00 | 41 | 1011.8 |
| 20260503181526 | 56 | 326 | 4.3 | 12.2 | 0.00 | 0.00 | 0.00 | 41 | 1012.0 |
| 20260503181027 | 56 | 340 | 5.2 | 13.9 | 0.00 | 0.00 | 0.00 | 40 | 1012.0 |
| 20260503180529 | 57 | 333 | 4.3 | 13.9 | 0.00 | 0.00 | 0.00 | 40 | 1012.2 |
| 20260503180033 | 57 | 254 | 2.6 | 8.7 | 0.00 | 0.00 | 0.00 | 43 | 1012.1 |
| 20260503180027 | 58 | 241 | 2.6 | 11.3 | 0.00 | 0.00 | 0.00 | 41 | 1012.1 |
| 20260503175022 | 57 | 254 | 2.6 | 9.6 | 0.00 | 0.00 | 0.00 | 41 | 1012.1 |
| 20260503174522 | 56 | 255 | 3.5 | 12.2 | 0.00 | 0.00 | 0.00 | 41 | 1012.0 |
| 20260503174022 | 56 | 259 | 4.3 | 12.2 | 0.00 | 0.00 | 0.00 | 41 | 1012.2 |
| 20260503173753 | 57 | 256 | 3.5 | 12.2 | 0.00 | 0.00 | 0.00 | 40 | 1012.4 |
| 20260503173022 | 57 | 234 | 3.5 | 13.9 | 0.00 | 0.00 | 0.00 | 42 | 1012.2 |
| 20260503172753 | 56 | 234 | 3.5 | 13.9 | 0.00 | 0.00 | 0.00 | 41 | 1012.2 |
| 20260503172023 | 56 | 246 | 3.5 | 13.0 | 0.00 | 0.00 | 0.00 | 43 | 1012.1 |
| 20260503171517 | 55 | 246 | 4.3 | 13.0 | 0.00 | 0.00 | 0.00 | 43 | 1012.3 |
| 20260503171013 | 55 | 248 | 4.3 | 13.0 | 0.00 | 0.00 | 0.00 | 44 | 1012.3 |
| 20260503170513 | 54 | 250 | 4.3 | 13.0 | 0.00 | 0.00 | 0.00 | 43 | 1012.4 |
| 20260503151004 | 50 | 198 | 1.7 | 7.0 | 0.00 | 0.00 | 0.00 | 46 | 1013.6 |
| 20260503150735 | 50 | 198 | 1.7 | 7.0 | 0.00 | 0.01 | 0.00 | 48 | 1013.5 |
| 20260503131208 | 38 | 198 | 0.9 | 5.2 | 0.00 | 0.03 | 0.00 | 85 | 1014.3 |
| 20260503130436 | 37 | 198 | 0.9 | 4.3 | 0.00 | 0.03 | 0.00 | 91 | 1014.2 |
| 20260503110420 | 31 | 198 | 0.0 | 0.0 | 0.00 | 0.03 | 0.00 | 94 | 1014.1 |
| 20260503090358 | 29 | 198 | 0.0 | 0.0 | 0.00 | 0.03 | 0.00 | 93 | 1013.7 |
| 20260503081612 | 29 | 198 | 0.0 | 0.0 | 0.00 | 0.03 | 0.00 | 92 | 1013.6 |
| 20260503080841 | 29 | 198 | 0.0 | 0.0 | 0.00 | 0.03 | 0.00 | 92 | 1013.6 |
| 20260503080334 | 29 | 198 | 0.0 | 0.0 | 0.00 | 0.03 | 0.00 | 92 | 1013.6 |
| 20260503072819 | 30 | 198 | 0.0 | 0.0 | 0.00 | 0.03 | 0.00 | 92 | 1013.6 |
| 20260503072321 | 30 | 198 | 0.0 | 0.0 | 0.00 | 0.03 | 0.00 | 92 | 1013.5 |
| 20260503072316 | 30 | 198 | 0.0 | 0.0 | 0.00 | 0.03 | 0.00 | 92 | 1013.6 |
| 20260503071543 | 30 | 198 | 0.0 | 0.0 | 0.00 | 0.03 | 0.00 | 92 | 1013.5 |
| 20260503070808 | 30 | 198 | 0.0 | 0.0 | 0.00 | 0.03 | 0.00 | 91 | 1013.5 |
| 20260503070307 | 30 | 198 | 0.0 | 0.0 | 0.00 | 0.03 | 0.00 | 91 | 1013.4 |
| 20260503060245 | 31 | 198 | 0.0 | 0.0 | 0.00 | 0.03 | 0.00 | 89 | 1013.8 |
| 20260503054740 | 31 | 198 | 0.0 | 0.0 | 0.00 | 0.03 | 0.00 | 89 | 1013.8 |
| 20260503054239 | 31 | 198 | 0.0 | 0.0 | 0.00 | 0.03 | 0.00 | 89 | 1013.8 |
| 20260503054011 | 31 | 198 | 0.0 | 0.0 | 0.00 | 0.03 | 0.00 | 88 | 1013.8 |
| 20260503053238 | 31 | 198 | 0.0 | 0.0 | 0.00 | 0.03 | 0.00 | 88 | 1013.9 |
| 20260503052738 | 31 | 198 | 0.0 | 0.0 | 0.00 | 0.03 | 0.00 | 88 | 1013.9 |
| 20260503052503 | 32 | 198 | 0.0 | 0.0 | 0.00 | 0.03 | 0.00 | 87 | 1013.9 |
| 20260503052003 | 32 | 198 | 0.0 | 0.0 | 0.00 | 0.03 | 0.00 | 87 | 1013.9 |
| 20260503051228 | 32 | 198 | 0.0 | 0.0 | 0.00 | 0.03 | 0.00 | 87 | 1013.9 |
| 20260503050727 | 32 | 198 | 0.0 | 0.0 | 0.00 | 0.03 | 0.00 | 87 | 1013.9 |
| 20260503050456 | 33 | 198 | 0.0 | 0.0 | 0.00 | 0.03 | 0.00 | 87 | 1013.9 |
| 20260503045724 | 33 | 198 | 0.0 | 0.0 | 0.00 | 0.03 | 0.00 | 86 | 1014.0 |
| 20260503045455 | 33 | 198 | 0.0 | 0.0 | 0.00 | 0.03 | 0.00 | 86 | 1014.0 |
| 20260503044724 | 33 | 198 | 0.0 | 0.0 | 0.00 | 0.03 | 0.00 | 86 | 1014.0 |
| 20260503044224 | 33 | 198 | 0.0 | 0.0 | 0.00 | 0.03 | 0.00 | 86 | 1013.9 |
| 20260503043956 | 34 | 198 | 0.0 | 0.0 | 0.00 | 0.03 | 0.00 | 86 | 1014.0 |
| 20260503043454 | 34 | 198 | 0.0 | 0.0 | 0.00 | 0.03 | 0.00 | 86 | 1014.0 |
| 20260503042722 | 34 | 198 | 0.0 | 0.0 | 0.00 | 0.03 | 0.00 | 85 | 1013.9 |
| 20260503042218 | 35 | 198 | 0.0 | 0.0 | 0.00 | 0.03 | 0.00 | 85 | 1014.0 |
| 20260503041718 | 35 | 198 | 0.0 | 0.0 | 0.00 | 0.03 | 0.00 | 84 | 1014.0 |
| 20260503041218 | 35 | 198 | 0.0 | 0.0 | 0.00 | 0.03 | 0.00 | 84 | 1014.0 |
| 20260503040718 | 35 | 198 | 0.0 | 0.0 | 0.00 | 0.03 | 0.00 | 83 | 1014.0 |
| 20260503040217 | 36 | 198 | 0.0 | 0.0 | 0.00 | 0.03 | 0.00 | 83 | 1014.0 |
| 20260503035714 | 36 | 198 | 0.0 | 0.0 | 0.00 | 0.03 | 0.03 | 83 | 1014.0 |
| 20260503035207 | 36 | 198 | 0.0 | 0.0 | 0.00 | 0.03 | 0.03 | 82 | 1014.0 |
| 20260503034708 | 36 | 198 | 0.0 | 0.0 | 0.00 | 0.03 | 0.03 | 82 | 1014.0 |
| 20260503034434 | 37 | 198 | 0.0 | 0.0 | 0.00 | 0.03 | 0.03 | 82 | 1014.0 |
| 20260503033701 | 37 | 198 | 0.0 | 0.0 | 0.00 | 0.03 | 0.03 | 82 | 1013.9 |
| 20260503033203 | 37 | 198 | 0.0 | 0.0 | 0.00 | 0.03 | 0.03 | 81 | 1013.9 |
| 20260503032656 | 37 | 198 | 0.0 | 0.0 | 0.00 | 0.03 | 0.03 | 81 | 1014.0 |
| 20260503032200 | 37 | 198 | 0.0 | 0.0 | 0.00 | 0.03 | 0.03 | 80 | 1014.0 |
| 20260503032154 | 37 | 198 | 0.0 | 0.0 | 0.00 | 0.03 | 0.03 | 81 | 1014.0 |
| 20260503031149 | 37 | 198 | 0.0 | 0.0 | 0.00 | 0.03 | 0.03 | 79 | 1014.1 |
| 20260503030651 | 37 | 198 | 0.0 | 0.0 | 0.00 | 0.03 | 0.03 | 79 | 1014.1 |
| 20260503030142 | 37 | 198 | 0.0 | 0.0 | 0.00 | 0.03 | 0.03 | 79 | 1014.1 |
| 20260503025913 | 38 | 198 | 0.0 | 0.0 | 0.00 | 0.03 | 0.03 | 79 | 1014.2 |
| 20260503025411 | 38 | 198 | 0.0 | 0.0 | 0.00 | 0.03 | 0.03 | 78 | 1014.1 |
| 20260503024637 | 38 | 198 | 0.0 | 0.0 | 0.00 | 0.03 | 0.03 | 78 | 1014.2 |
| 20260503024139 | 38 | 198 | 0.0 | 0.0 | 0.00 | 0.03 | 0.03 | 78 | 1014.2 |
| 20260503023906 | 38 | 198 | 0.0 | 0.0 | 0.00 | 0.03 | 0.03 | 78 | 1014.3 |
| 20260503023133 | 38 | 198 | 0.0 | 0.0 | 0.00 | 0.03 | 0.03 | 78 | 1014.3 |
| 20260503022633 | 38 | 198 | 0.0 | 0.0 | 0.00 | 0.03 | 0.03 | 77 | 1014.3 |
| 20260503022133 | 38 | 198 | 0.0 | 0.0 | 0.00 | 0.03 | 0.03 | 76 | 1014.3 |
| 20260503021631 | 38 | 198 | 0.0 | 0.0 | 0.00 | 0.03 | 0.03 | 76 | 1014.3 |
| 20260503021131 | 38 | 198 | 0.0 | 0.0 | 0.00 | 0.03 | 0.03 | 74 | 1014.3 |
| 20260503020858 | 38 | 198 | 0.0 | 0.0 | 0.00 | 0.03 | 0.03 | 74 | 1014.3 |
| 20260503020359 | 39 | 198 | 0.0 | 0.0 | 0.00 | 0.03 | 0.03 | 74 | 1014.3 |
| 20260503015628 | 39 | 198 | 0.0 | 0.0 | 0.00 | 0.03 | 0.03 | 73 | 1014.2 |
| 20260503015128 | 39 | 198 | 0.0 | 0.0 | 0.00 | 0.03 | 0.03 | 72 | 1014.2 |
| 20260503014856 | 39 | 198 | 0.0 | 0.0 | 0.00 | 0.03 | 0.03 | 76 | 1014.2 |
| 20260503014125 | 39 | 198 | 0.0 | 0.0 | 0.00 | 0.03 | 0.03 | 71 | 1014.2 |
| 20260503013619 | 40 | 198 | 0.0 | 0.0 | 0.00 | 0.03 | 0.03 | 71 | 1014.2 |
| 20260503013117 | 40 | 198 | 0.0 | 0.0 | 0.00 | 0.03 | 0.03 | 71 | 1014.2 |
| 20260503012615 | 40 | 198 | 0.0 | 0.0 | 0.00 | 0.03 | 0.03 | 70 | 1014.1 |
| 20260503012114 | 40 | 198 | 0.0 | 0.0 | 0.00 | 0.03 | 0.03 | 69 | 1014.1 |
| 20260503011612 | 40 | 198 | 0.0 | 0.0 | 0.00 | 0.03 | 0.03 | 68 | 1014.2 |
| 20260503011107 | 40 | 198 | 0.0 | 0.0 | 0.00 | 0.03 | 0.03 | 68 | 1014.1 |
| 20260503010605 | 40 | 198 | 0.0 | 0.0 | 0.00 | 0.03 | 0.03 | 66 | 1014.1 |
| 20260503010103 | 41 | 198 | 0.0 | 0.0 | 0.00 | 0.03 | 0.03 | 65 | 1014.0 |
| 20260503005601 | 41 | 198 | 0.0 | 0.9 | 0.00 | 0.03 | 0.03 | 64 | 1014.0 |
| 20260503005102 | 41 | 198 | 0.0 | 0.9 | 0.00 | 0.03 | 0.03 | 67 | 1013.9 |
| 20260503004827 | 41 | 198 | 0.0 | 0.9 | 0.00 | 0.03 | 0.03 | 67 | 1013.8 |
| 20260503004053 | 41 | 198 | 0.0 | 0.9 | 0.00 | 0.03 | 0.03 | 64 | 1013.7 |
| 20260503003551 | 41 | 198 | 0.0 | 0.9 | 0.00 | 0.03 | 0.03 | 66 | 1013.6 |
| 20260503003319 | 41 | 198 | 0.0 | 0.9 | 0.00 | 0.03 | 0.03 | 66 | 1013.7 |
| 20260503002821 | 41 | 198 | 0.0 | 0.9 | 0.00 | 0.03 | 0.03 | 65 | 1013.8 |
| 20260503002043 | 41 | 198 | 0.0 | 0.9 | 0.00 | 0.03 | 0.03 | 63 | 1013.7 |
| 20260503001541 | 41 | 198 | 0.0 | 0.9 | 0.00 | 0.03 | 0.03 | 63 | 1013.6 |
| 20260503001039 | 42 | 198 | 0.0 | 0.9 | 0.00 | 0.03 | 0.03 | 64 | 1013.7 |
| 20260503000810 | 42 | 198 | 0.0 | 1.7 | 0.00 | 0.03 | 0.03 | 64 | 1013.6 |
| 20260503000036 | 42 | 198 | 0.0 | 1.7 | 0.00 | 0.03 | 0.03 | 61 | 1013.6 |
| 20260502235531 | 42 | 198 | 0.0 | 0.9 | 0.00 | 0.03 | 0.03 | 63 | 1013.6 |
| 20260502235028 | 42 | 198 | 0.0 | 0.0 | 0.00 | 0.03 | 0.03 | 62 | 1013.5 |
| 20260502234528 | 42 | 198 | 0.0 | 0.0 | 0.00 | 0.03 | 0.03 | 62 | 1013.5 |
| 20260502234029 | 42 | 198 | 0.0 | 4.3 | 0.00 | 0.03 | 0.03 | 59 | 1013.5 |
| 20260502233527 | 42 | 198 | 0.0 | 4.3 | 0.00 | 0.03 | 0.03 | 60 | 1013.5 |
| 20260502233029 | 42 | 198 | 0.0 | 1.7 | 0.00 | 0.03 | 0.03 | 61 | 1013.5 |
| 20260502232522 | 42 | 198 | 0.0 | 1.7 | 0.00 | 0.03 | 0.03 | 58 | 1013.5 |
| 20260502232024 | 43 | 198 | 0.0 | 3.5 | 0.00 | 0.03 | 0.03 | 61 | 1013.5 |
| 20260502231753 | 43 | 198 | 0.0 | 3.5 | 0.00 | 0.03 | 0.03 | 60 | 1013.4 |
| 20260502231023 | 43 | 198 | 0.0 | 1.7 | 0.00 | 0.03 | 0.03 | 59 | 1013.4 |
| 20260502230521 | 43 | 198 | 0.0 | 0.9 | 0.00 | 0.03 | 0.03 | 61 | 1013.4 |
| 20260502230021 | 43 | 198 | 0.0 | 1.7 | 0.00 | 0.03 | 0.03 | 60 | 1013.3 |
| 20260502225515 | 43 | 198 | 0.0 | 1.7 | 0.00 | 0.04 | 0.03 | 58 | 1013.4 |
| 20260502225014 | 43 | 198 | 0.0 | 2.6 | 0.00 | 0.04 | 0.03 | 59 | 1013.4 |
| 20260502224511 | 43 | 198 | 0.9 | 2.6 | 0.00 | 0.04 | 0.03 | 62 | 1013.4 |
| 20260502224009 | 43 | 198 | 0.9 | 3.5 | 0.00 | 0.04 | 0.03 | 60 | 1013.3 |
| 20260502223509 | 43 | 198 | 0.9 | 3.5 | 0.00 | 0.04 | 0.03 | 57 | 1013.3 |
| 20260502223004 | 44 | 198 | 0.0 | 3.5 | 0.00 | 0.04 | 0.03 | 58 | 1013.3 |
| 20260502222504 | 44 | 198 | 0.0 | 2.6 | 0.00 | 0.04 | 0.03 | 58 | 1013.3 |
| 20260502222003 | 44 | 198 | 0.0 | 1.7 | 0.00 | 0.04 | 0.03 | 57 | 1013.2 |
| 20260502221503 | 44 | 198 | 0.0 | 0.9 | 0.00 | 0.04 | 0.03 | 60 | 1013.4 |
| 20260502221003 | 44 | 198 | 0.0 | 0.9 | 0.00 | 0.04 | 0.03 | 59 | 1013.3 |
| 20260502220502 | 44 | 198 | 0.9 | 3.5 | 0.00 | 0.04 | 0.03 | 56 | 1013.3 |
| 20260502215957 | 44 | 198 | 0.0 | 3.5 | 0.00 | 0.05 | 0.03 | 58 | 1013.3 |
| 20260502215456 | 44 | 198 | 0.0 | 1.7 | 0.00 | 0.05 | 0.03 | 57 | 1013.3 |
| 20260502214953 | 44 | 198 | 0.0 | 1.7 | 0.00 | 0.05 | 0.03 | 56 | 1013.3 |
| 20260502214451 | 44 | 198 | 0.0 | 3.5 | 0.00 | 0.06 | 0.03 | 56 | 1013.3 |
| 20260502213951 | 44 | 198 | 0.0 | 3.5 | 0.00 | 0.06 | 0.03 | 55 | 1013.2 |
| 20260502213444 | 44 | 198 | 0.9 | 3.5 | 0.00 | 0.06 | 0.03 | 56 | 1013.0 |
| 20260502212942 | 44 | 198 | 0.9 | 6.1 | 0.00 | 0.06 | 0.03 | 56 | 1013.0 |
| 20260502212442 | 44 | 198 | 0.0 | 6.1 | 0.00 | 0.06 | 0.03 | 56 | 1013.2 |
| 20260502211943 | 44 | 198 | 0.9 | 3.5 | 0.00 | 0.06 | 0.03 | 59 | 1013.2 |
| 20260502211441 | 44 | 198 | 0.9 | 5.2 | 0.00 | 0.06 | 0.03 | 56 | 1013.0 |
| 20260502210940 | 44 | 198 | 0.9 | 5.2 | 0.00 | 0.07 | 0.03 | 56 | 1013.2 |
| 20260502210435 | 44 | 198 | 0.9 | 5.2 | 0.00 | 0.07 | 0.03 | 59 | 1012.9 |
| 20260502210204 | 44 | 198 | 0.9 | 5.2 | 0.00 | 0.07 | 0.03 | 54 | 1012.9 |
| 20260502205705 | 45 | 198 | 0.9 | 5.2 | 0.00 | 0.07 | 0.03 | 56 | 1013.0 |
| 20260502204932 | 46 | 198 | 1.7 | 7.8 | 0.00 | 0.07 | 0.03 | 54 | 1012.9 |
| 20260502204431 | 46 | 198 | 1.7 | 7.8 | 0.00 | 0.08 | 0.03 | 53 | 1012.8 |
| 20260502203932 | 46 | 198 | 0.9 | 7.8 | 0.00 | 0.08 | 0.03 | 55 | 1012.7 |
| 20260502203432 | 46 | 198 | 0.9 | 7.8 | 0.00 | 0.08 | 0.03 | 56 | 1012.7 |
| 20260502202930 | 45 | 198 | 0.9 | 4.3 | 0.00 | 0.08 | 0.03 | 60 | 1012.7 |
| 20260502202429 | 44 | 198 | 0.9 | 4.3 | 0.00 | 0.09 | 0.03 | 57 | 1012.8 |
| 20260502201926 | 44 | 198 | 0.9 | 2.6 | 0.00 | 0.09 | 0.03 | 62 | 1013.0 |
| 20260502201425 | 44 | 198 | 0.9 | 2.6 | 0.00 | 0.09 | 0.03 | 58 | 1013.0 |
| 20260502200925 | 44 | 198 | 0.0 | 2.6 | 0.00 | 0.10 | 0.03 | 63 | 1013.0 |